createdAt,value
2023-03-08T00:00:25.617Z,24.75
2023-03-08T00:01:31.465Z,14.10
2023-03-08T00:02:36.637Z,14.10
2023-03-08T00:03:40.396Z,15.38
2023-03-08T00:04:43.741Z,13.90
2023-03-08T00:05:49.432Z,15.68
2023-03-08T00:06:53.284Z,14.20
2023-03-08T00:07:56.327Z,17.42
2023-03-08T00:09:02.519Z,13.45
2023-03-08T00:10:11.606Z,15.52
2023-03-08T00:11:17.105Z,11.13
2023-03-08T00:12:21.831Z,12.95
2023-03-08T00:13:23.645Z,13.13
2023-03-08T00:14:25.866Z,18.67
2023-03-08T00:15:29.641Z,14.05
2023-03-08T00:16:34.786Z,14.90
2023-03-08T00:17:41.214Z,16.80
2023-03-08T00:18:43.242Z,19.65
2023-03-08T00:19:45.692Z,12.48
2023-03-08T00:21:01.712Z,13.65
2023-03-08T00:22:04.514Z,13.57
2023-03-08T00:23:11.388Z,12.02
2023-03-08T00:24:16.686Z,14.52
2023-03-08T00:25:20.437Z,10.00
2023-03-08T00:26:22.757Z,14.35
2023-03-08T00:27:24.711Z,12.27
2023-03-08T00:28:32.421Z,13.50
2023-03-08T00:29:35.652Z,12.05
2023-03-08T00:30:37.631Z,13.93
2023-03-08T00:31:40.355Z,11.90
2023-03-08T00:32:46.100Z,13.13
2023-03-08T00:33:48.788Z,12.55
2023-03-08T00:34:56.249Z,11.23
2023-03-08T00:36:04.160Z,11.90
2023-03-08T00:37:08.800Z,17.75
2023-03-08T00:38:12.955Z,13.20
2023-03-08T00:39:18.112Z,10.68
2023-03-08T00:40:25.352Z,11.68
2023-03-08T00:41:27.122Z,12.23
2023-03-08T00:42:29.968Z,14.02
2023-03-08T00:43:36.384Z,14.40
2023-03-08T00:44:38.348Z,11.65
2023-03-08T00:45:40.319Z,15.52
2023-03-08T00:46:45.719Z,12.93
2023-03-08T00:47:47.846Z,13.30
2023-03-08T00:48:51.364Z,11.55
2023-03-08T00:49:54.291Z,13.43
2023-03-08T00:51:01.836Z,13.43
2023-03-08T00:52:04.104Z,15.50
2023-03-08T00:53:10.415Z,10.63
2023-03-08T00:54:12.092Z,13.10
2023-03-08T00:55:34.249Z,11.40
2023-03-08T00:56:36.168Z,11.40
2023-03-08T00:57:38.307Z,9.95
2023-03-08T00:58:42.229Z,12.57
2023-03-08T00:59:46.420Z,12.30
2023-03-08T01:00:50.259Z,15.20
2023-03-08T01:01:54.393Z,13.45
2023-03-08T01:03:07.260Z,14.38
2023-03-08T01:04:10.867Z,15.60
2023-03-08T01:05:14.368Z,10.25
2023-03-08T01:06:16.801Z,14.05
2023-03-08T01:07:20.085Z,12.57
2023-03-08T01:08:27.128Z,11.35
2023-03-08T01:09:29.723Z,11.82
2023-03-08T01:10:37.726Z,12.63
2023-03-08T01:11:42.035Z,15.57
2023-03-08T01:12:48.687Z,10.43
2023-03-08T01:14:02.596Z,15.88
2023-03-08T01:15:06.267Z,10.65
2023-03-08T01:16:23.658Z,12.82
2023-03-08T01:17:25.660Z,13.60
2023-03-08T01:18:31.288Z,12.32
2023-03-08T01:19:34.807Z,17.20
2023-03-08T01:20:40.288Z,11.25
2023-03-08T01:21:44.926Z,10.50
2023-03-08T01:22:50.765Z,12.00
2023-03-08T01:23:54.977Z,10.93
2023-03-08T01:24:59.098Z,10.25
2023-03-08T01:26:07.138Z,9.50
2023-03-08T01:27:16.724Z,10.40
2023-03-08T01:28:19.733Z,9.45
2023-03-08T01:29:24.033Z,10.52
2023-03-08T01:30:30.469Z,8.38
2023-03-08T01:31:38.570Z,8.77
2023-03-08T01:32:45.632Z,10.10
2023-03-08T01:33:48.956Z,10.60
2023-03-08T01:34:51.054Z,11.63
2023-03-08T01:35:53.759Z,14.30
2023-03-08T01:37:00.180Z,12.43
2023-03-08T01:38:05.441Z,9.77
2023-03-08T01:39:09.012Z,10.38
2023-03-08T01:40:22.227Z,12.82
2023-03-08T01:41:31.640Z,10.65
2023-03-08T01:42:35.936Z,11.25
2023-03-08T01:43:40.079Z,10.65
2023-03-08T01:44:55.636Z,9.75
2023-03-08T01:46:21.217Z,12.95
2023-03-08T01:47:26.327Z,8.55
2023-03-08T01:48:34.764Z,11.30
2023-03-08T01:49:37.220Z,9.95
2023-03-08T01:50:41.362Z,8.65
2023-03-08T01:51:47.805Z,8.98
2023-03-08T01:52:53.965Z,10.38
2023-03-08T01:54:00.195Z,8.05
2023-03-08T01:55:12.026Z,7.60
2023-03-08T01:56:22.034Z,8.60
2023-03-08T01:57:37.859Z,7.85
2023-03-08T01:58:45.150Z,10.73
2023-03-08T01:59:57.495Z,10.30
2023-03-08T02:01:00.846Z,7.78
2023-03-08T02:02:27.191Z,9.18
2023-03-08T02:03:32.852Z,8.40
2023-03-08T02:04:35.922Z,9.95
2023-03-08T02:05:44.909Z,8.73
2023-03-08T02:06:46.674Z,8.35
2023-03-08T02:07:51.428Z,8.82
2023-03-08T02:08:53.751Z,9.20
2023-03-08T02:09:56.077Z,8.38
2023-03-08T02:10:58.436Z,10.05
2023-03-08T02:12:04.531Z,7.70
2023-03-08T02:13:09.525Z,9.13
2023-03-08T02:14:11.888Z,7.07
2023-03-08T02:15:26.228Z,10.77
2023-03-08T02:16:29.209Z,8.75
2023-03-08T02:17:35.800Z,7.45
2023-03-08T02:18:39.694Z,8.18
2023-03-08T02:19:50.948Z,7.05
2023-03-08T02:20:53.086Z,7.47
2023-03-08T02:21:55.735Z,10.10
2023-03-08T02:23:18.667Z,8.07
2023-03-08T02:24:29.288Z,7.13
2023-03-08T02:25:45.457Z,14.95
2023-03-08T02:27:25.180Z,7.20
2023-03-08T02:30:04.009Z,8.52
2023-03-08T02:31:09.472Z,6.72
2023-03-08T02:32:16.193Z,6.90
2023-03-08T02:33:24.119Z,6.60
2023-03-08T02:34:28.586Z,7.60
2023-03-08T02:35:30.904Z,8.98
2023-03-08T02:36:37.515Z,9.60
2023-03-08T02:37:39.538Z,9.50
2023-03-08T02:38:45.052Z,6.85
2023-03-08T02:39:52.276Z,8.23
2023-03-08T02:40:57.044Z,9.95
2023-03-08T02:42:02.504Z,8.60
2023-03-08T02:43:08.880Z,10.32
2023-03-08T02:44:12.417Z,7.78
2023-03-08T02:45:16.715Z,8.50
2023-03-08T02:46:22.350Z,6.68
2023-03-08T02:47:26.173Z,6.75
2023-03-08T02:48:36.640Z,9.32
2023-03-08T02:49:40.713Z,6.85
2023-03-08T02:50:51.465Z,7.53
2023-03-08T02:51:56.937Z,7.97
2023-03-08T02:53:00.389Z,9.57
2023-03-08T02:54:06.055Z,12.85
2023-03-08T02:55:09.483Z,11.32
2023-03-08T02:56:14.739Z,12.10
2023-03-08T02:57:23.662Z,11.73
2023-03-08T02:58:30.789Z,9.07
2023-03-08T02:59:42.533Z,9.00
2023-03-08T03:00:48.253Z,9.60
2023-03-08T03:01:50.598Z,9.68
2023-03-08T03:02:54.683Z,12.25
2023-03-08T03:04:01.204Z,10.55
2023-03-08T03:05:12.468Z,10.13
2023-03-08T03:06:23.530Z,10.20
2023-03-08T03:07:44.246Z,11.07
2023-03-08T03:08:48.537Z,14.60
2023-03-08T03:11:21.286Z,13.90
2023-03-08T03:12:33.386Z,10.48
2023-03-08T03:13:42.674Z,9.98
2023-03-08T03:14:44.954Z,14.13
2023-03-08T03:15:50.144Z,12.40
2023-03-08T03:17:01.006Z,16.88
2023-03-08T03:18:06.098Z,15.82
2023-03-08T03:19:10.929Z,16.80
2023-03-08T03:20:17.221Z,12.20
2023-03-08T03:21:19.862Z,12.10
2023-03-08T03:22:22.772Z,16.02
2023-03-08T03:23:30.331Z,18.08
2023-03-08T03:24:32.267Z,18.98
2023-03-08T03:25:38.599Z,13.13
2023-03-08T03:26:44.311Z,20.02
2023-03-08T03:27:46.591Z,14.57
2023-03-08T03:28:50.222Z,15.20
2023-03-08T03:29:52.432Z,15.35
2023-03-08T03:30:54.123Z,19.30
2023-03-08T03:31:56.245Z,16.15
2023-03-08T03:33:01.443Z,17.92
2023-03-08T03:34:04.733Z,15.80
2023-03-08T03:35:07.418Z,17.67
2023-03-08T03:36:16.628Z,14.95
2023-03-08T03:37:18.367Z,18.83
2023-03-08T03:38:24.542Z,21.10
2023-03-08T03:39:34.208Z,14.63
2023-03-08T03:40:38.321Z,14.77
2023-03-08T03:41:42.845Z,12.52
2023-03-08T03:42:52.142Z,15.52
2023-03-08T03:43:54.364Z,19.40
2023-03-08T03:45:07.117Z,17.90
2023-03-08T03:46:17.117Z,15.63
2023-03-08T03:47:19.365Z,17.70
2023-03-08T03:48:21.391Z,14.40
2023-03-08T03:49:23.242Z,15.38
2023-03-08T03:50:26.898Z,17.33
2023-03-08T03:51:34.707Z,14.60
2023-03-08T03:52:44.414Z,14.45
2023-03-08T03:53:50.886Z,15.02
2023-03-08T03:54:56.235Z,16.38
2023-03-08T03:56:10.636Z,14.48
2023-03-08T03:57:12.472Z,18.13
2023-03-08T03:58:16.670Z,13.55
2023-03-08T03:59:27.323Z,14.57
2023-03-08T04:00:31.765Z,15.45
2023-03-08T04:01:35.785Z,12.77
2023-03-08T04:02:38.556Z,17.40
2023-03-08T04:03:42.025Z,17.55
2023-03-08T04:04:48.490Z,17.70
2023-03-08T04:05:50.320Z,15.75
2023-03-08T04:06:52.689Z,13.52
2023-03-08T04:07:55.052Z,14.75
2023-03-08T04:09:04.213Z,13.98
2023-03-08T04:10:10.115Z,15.75
2023-03-08T04:11:21.932Z,14.02
2023-03-08T04:12:24.532Z,17.95
2023-03-08T04:13:31.519Z,16.88
2023-03-08T04:14:37.406Z,12.15
2023-03-08T04:15:49.324Z,16.15
2023-03-08T04:16:54.412Z,16.90
2023-03-08T04:18:06.547Z,13.13
2023-03-08T04:19:17.079Z,12.18
2023-03-08T04:20:22.709Z,21.60
2023-03-08T04:21:25.527Z,17.65
2023-03-08T04:22:27.638Z,19.40
2023-03-08T04:23:35.484Z,15.05
2023-03-08T04:24:37.724Z,16.52
2023-03-08T04:25:43.245Z,17.35
2023-03-08T04:26:54.818Z,16.58
2023-03-08T04:28:00.977Z,17.10
2023-03-08T04:29:07.449Z,14.80
2023-03-08T04:30:10.634Z,13.25
2023-03-08T04:31:28.594Z,16.48
2023-03-08T04:32:35.548Z,16.90
2023-03-08T04:33:44.719Z,15.93
2023-03-08T04:34:50.066Z,17.13
2023-03-08T04:35:53.959Z,15.60
2023-03-08T04:36:57.170Z,21.98
2023-03-08T04:38:05.499Z,15.02
2023-03-08T04:39:14.015Z,15.82
2023-03-08T04:40:16.693Z,14.95
2023-03-08T04:41:20.399Z,21.08
2023-03-08T04:42:24.328Z,15.48
2023-03-08T04:43:28.813Z,20.98
2023-03-08T04:44:34.239Z,24.30
2023-03-08T04:45:42.574Z,26.45
2023-03-08T04:46:46.874Z,16.63
2023-03-08T04:47:51.775Z,27.90
2023-03-08T04:48:56.169Z,10.63
2023-03-08T04:49:58.458Z,13.43
2023-03-08T04:51:06.586Z,17.15
2023-03-08T04:52:22.650Z,16.20
2023-03-08T04:53:48.200Z,15.32
2023-03-08T04:54:54.590Z,13.38
2023-03-08T04:55:57.612Z,12.38
2023-03-08T04:57:00.300Z,13.50
2023-03-08T04:58:02.848Z,15.50
2023-03-08T04:59:05.204Z,13.90
2023-03-08T05:00:09.117Z,12.88
2023-03-08T05:01:19.760Z,13.70
2023-03-08T05:02:24.804Z,13.60
2023-03-08T05:03:26.680Z,11.70
2023-03-08T05:04:29.369Z,10.55
2023-03-08T05:05:32.094Z,12.02
2023-03-08T05:06:34.011Z,10.02
2023-03-08T05:07:36.417Z,21.15
2023-03-08T05:08:38.227Z,12.90
2023-03-08T05:09:39.970Z,14.07
2023-03-08T05:10:48.618Z,11.82
2023-03-08T05:11:50.531Z,14.23
2023-03-08T05:12:52.365Z,8.93
2023-03-08T05:13:58.622Z,8.65
2023-03-08T05:15:00.252Z,10.48
2023-03-08T05:16:04.153Z,11.63
2023-03-08T05:17:09.763Z,15.20
2023-03-08T05:18:12.018Z,13.35
2023-03-08T05:19:13.958Z,12.77
2023-03-08T05:20:16.769Z,12.73
2023-03-08T05:21:21.659Z,12.25
2023-03-08T05:22:23.688Z,11.63
2023-03-08T05:23:28.592Z,10.80
2023-03-08T05:24:31.244Z,10.85
2023-03-08T05:25:37.159Z,12.80
2023-03-08T05:26:39.109Z,13.75
2023-03-08T05:27:41.124Z,11.45
2023-03-08T05:28:43.385Z,7.55
2023-03-08T05:29:48.124Z,8.18
2023-03-08T05:30:51.026Z,13.45
2023-03-08T05:31:53.570Z,10.75
2023-03-08T05:32:55.437Z,10.65
2023-03-08T05:34:00.238Z,9.52
2023-03-08T05:35:02.445Z,11.82
2023-03-08T05:36:08.531Z,11.63
2023-03-08T05:37:14.298Z,11.43
2023-03-08T05:38:19.964Z,8.40
2023-03-08T05:39:21.985Z,8.48
2023-03-08T05:40:24.086Z,9.00
2023-03-08T05:41:26.526Z,8.30
2023-03-08T05:42:32.253Z,6.90
2023-03-08T05:43:35.857Z,11.38
2023-03-08T05:44:38.203Z,8.68
2023-03-08T05:45:44.271Z,8.35
2023-03-08T05:46:46.412Z,9.88
2023-03-08T05:47:48.764Z,10.85
2023-03-08T05:48:51.333Z,9.57
2023-03-08T05:49:53.752Z,8.35
2023-03-08T05:50:55.784Z,8.15
2023-03-08T05:51:59.234Z,9.13
2023-03-08T05:53:01.199Z,9.45
2023-03-08T05:54:02.988Z,14.15
2023-03-08T05:55:10.219Z,12.02
2023-03-08T05:56:20.599Z,12.95
2023-03-08T05:57:22.237Z,11.70
2023-03-08T05:58:25.787Z,21.35
2023-03-08T05:59:29.027Z,13.25
2023-03-08T06:00:33.166Z,15.10
2023-03-08T06:01:35.260Z,11.50
2023-03-08T06:02:37.806Z,10.85
2023-03-08T06:03:43.526Z,15.80
2023-03-08T06:04:45.213Z,45.08
2023-03-08T06:05:48.145Z,23.00
2023-03-08T06:06:52.603Z,26.33
2023-03-08T06:07:57.450Z,13.70
2023-03-08T06:09:01.109Z,15.00
2023-03-08T06:10:03.446Z,17.83
2023-03-08T06:11:05.664Z,14.52
2023-03-08T06:12:07.947Z,13.73
2023-03-08T06:13:09.912Z,13.00
2023-03-08T06:14:13.262Z,14.25
2023-03-08T06:15:15.765Z,17.00
2023-03-08T06:16:17.706Z,13.48
2023-03-08T06:17:22.404Z,16.50
2023-03-08T06:18:28.077Z,14.13
2023-03-08T06:19:29.823Z,18.77
2023-03-08T06:20:33.135Z,12.30
2023-03-08T06:21:39.096Z,14.65
2023-03-08T06:22:49.392Z,14.88
2023-03-08T06:23:51.917Z,19.33
2023-03-08T06:24:55.458Z,15.43
2023-03-08T06:26:00.455Z,13.18
2023-03-08T06:27:05.618Z,17.23
2023-03-08T06:28:07.505Z,13.60
2023-03-08T06:29:10.320Z,16.35
2023-03-08T06:30:12.601Z,14.77
2023-03-08T06:31:17.431Z,17.63
2023-03-08T06:32:19.122Z,13.55
2023-03-08T06:33:24.224Z,14.82
2023-03-08T06:34:26.944Z,14.85
2023-03-08T06:35:29.014Z,18.23
2023-03-08T06:36:33.461Z,13.90
2023-03-08T06:37:36.250Z,14.45
2023-03-08T06:38:40.737Z,14.63
2023-03-08T06:39:42.405Z,14.68
2023-03-08T06:40:47.889Z,15.63
2023-03-08T06:41:52.704Z,16.02
2023-03-08T06:42:55.019Z,15.93
2023-03-08T06:43:57.260Z,15.20
2023-03-08T06:45:06.289Z,15.32
2023-03-08T06:46:12.210Z,19.58
2023-03-08T06:47:14.489Z,16.08
2023-03-08T06:48:16.510Z,18.83
2023-03-08T06:49:18.365Z,16.88
2023-03-08T06:50:21.767Z,15.98
2023-03-08T06:51:23.800Z,19.13
2023-03-08T06:52:25.791Z,18.23
2023-03-08T06:53:30.226Z,19.95
2023-03-08T06:54:33.957Z,29.30
2023-03-08T06:55:36.960Z,20.75
2023-03-08T06:56:38.789Z,35.58
2023-03-08T06:57:40.696Z,31.25
2023-03-08T06:58:44.742Z,29.55
2023-03-08T06:59:46.638Z,38.60
2023-03-08T07:00:48.554Z,24.08
2023-03-08T07:01:50.300Z,17.15
2023-03-08T07:02:57.360Z,18.67
2023-03-08T07:04:04.866Z,20.38
2023-03-08T07:05:08.324Z,20.13
2023-03-08T07:06:11.256Z,18.77
2023-03-08T07:07:14.114Z,20.40
2023-03-08T07:08:15.822Z,24.70
2023-03-08T07:09:20.508Z,19.73
2023-03-08T07:10:23.028Z,25.25
2023-03-08T07:11:29.097Z,19.23
2023-03-08T07:12:32.900Z,21.95
2023-03-08T07:13:37.455Z,23.65
2023-03-08T07:14:41.095Z,21.38
2023-03-08T07:15:43.678Z,21.05
2023-03-08T07:16:45.500Z,20.65
2023-03-08T07:17:51.099Z,29.23
2023-03-08T07:18:53.351Z,25.98
2023-03-08T07:19:55.311Z,28.38
2023-03-08T07:20:59.083Z,21.45
2023-03-08T07:22:01.187Z,23.85
2023-03-08T07:23:03.153Z,24.90
2023-03-08T07:24:05.385Z,26.75
2023-03-08T07:25:08.974Z,23.00
2023-03-08T07:26:13.649Z,26.63
2023-03-08T07:27:16.882Z,29.35
2023-03-08T07:28:18.673Z,29.05
2023-03-08T07:29:20.381Z,30.40
2023-03-08T07:30:22.752Z,35.40
2023-03-08T07:31:25.653Z,37.38
2023-03-08T07:32:29.395Z,47.25
2023-03-08T07:33:31.402Z,30.90
2023-03-08T07:34:33.160Z,31.30
2023-03-08T07:35:35.526Z,34.45
2023-03-08T07:36:38.955Z,30.60
2023-03-08T07:37:41.352Z,34.55
2023-03-08T07:38:44.020Z,35.50
2023-03-08T07:39:45.769Z,33.25
2023-03-08T07:40:55.272Z,31.88
2023-03-08T07:41:59.388Z,31.75
2023-03-08T07:43:01.962Z,32.40
2023-03-08T07:44:06.501Z,33.47
2023-03-08T07:45:14.607Z,32.25
2023-03-08T07:46:16.465Z,34.40
2023-03-08T07:47:18.478Z,32.63
2023-03-08T07:48:22.362Z,36.88
2023-03-08T07:49:25.124Z,38.03
2023-03-08T07:50:27.753Z,32.15
2023-03-08T07:51:31.862Z,40.08
2023-03-08T07:52:36.322Z,47.38
2023-03-08T07:53:40.435Z,37.63
2023-03-08T07:54:45.526Z,38.38
2023-03-08T07:55:47.134Z,34.83
2023-03-08T07:56:52.779Z,34.10
2023-03-08T07:57:56.385Z,33.85
2023-03-08T07:58:59.357Z,35.08
2023-03-08T08:00:01.380Z,42.13
2023-03-08T08:01:09.731Z,31.40
2023-03-08T08:02:21.819Z,44.17
2023-03-08T08:03:23.711Z,37.05
2023-03-08T08:04:25.707Z,34.05
2023-03-08T08:05:28.169Z,35.95
2023-03-08T08:06:30.887Z,35.95
2023-03-08T08:07:32.921Z,30.92
2023-03-08T08:08:35.487Z,40.80
2023-03-08T08:09:39.815Z,32.35
2023-03-08T08:10:43.655Z,41.83
2023-03-08T08:11:48.740Z,33.15
2023-03-08T08:12:53.964Z,32.13
2023-03-08T08:13:56.068Z,37.65
2023-03-08T08:14:59.803Z,32.72
2023-03-08T08:16:03.815Z,30.63
2023-03-08T08:17:06.142Z,34.78
2023-03-08T08:18:09.316Z,30.50
2023-03-08T08:19:12.684Z,35.63
2023-03-08T08:20:14.862Z,33.70
2023-03-08T08:21:17.315Z,37.05
2023-03-08T08:22:19.448Z,43.00
2023-03-08T08:23:21.046Z,35.85
2023-03-08T08:24:23.181Z,35.38
2023-03-08T08:25:24.885Z,37.38
2023-03-08T08:26:27.789Z,34.83
2023-03-08T08:27:29.878Z,36.78
2023-03-08T08:28:32.253Z,32.35
2023-03-08T08:29:39.218Z,43.70
2023-03-08T08:30:42.054Z,30.48
2023-03-08T08:31:47.666Z,36.90
2023-03-08T08:32:49.491Z,31.15
2023-03-08T08:33:51.329Z,37.42
2023-03-08T08:34:55.876Z,37.72
2023-03-08T08:35:58.254Z,34.53
2023-03-08T08:37:00.210Z,39.45
2023-03-08T08:38:01.854Z,36.28
2023-03-08T08:39:04.963Z,37.95
2023-03-08T08:40:11.299Z,38.35
2023-03-08T08:41:15.898Z,41.55
2023-03-08T08:42:18.977Z,40.28
2023-03-08T08:43:20.750Z,42.28
2023-03-08T08:44:22.692Z,33.38
2023-03-08T08:45:24.432Z,39.17
2023-03-08T08:46:28.107Z,40.40
2023-03-08T08:47:30.544Z,31.10
2023-03-08T08:48:35.445Z,38.55
2023-03-08T08:49:37.713Z,34.65
2023-03-08T08:50:42.887Z,30.98
2023-03-08T08:51:45.904Z,34.80
2023-03-08T08:52:47.902Z,34.72
2023-03-08T08:53:51.088Z,31.27
2023-03-08T08:54:55.191Z,28.63
2023-03-08T08:55:58.074Z,32.42
2023-03-08T08:57:01.413Z,27.88
2023-03-08T08:58:04.241Z,23.58
2023-03-08T08:59:07.361Z,23.35
2023-03-08T09:00:10.449Z,20.30
2023-03-08T09:01:20.047Z,17.48
2023-03-08T09:02:22.382Z,10.35
2023-03-08T09:03:25.897Z,12.73
2023-03-08T09:04:28.290Z,11.18
2023-03-08T09:05:30.526Z,7.28
2023-03-08T09:06:34.419Z,8.82
2023-03-08T09:07:39.350Z,9.70
2023-03-08T09:08:41.805Z,10.88
2023-03-08T09:09:44.031Z,10.57
2023-03-08T09:10:46.003Z,6.50
2023-03-08T09:11:55.526Z,5.15
2023-03-08T09:12:59.463Z,4.60
2023-03-08T09:14:05.934Z,4.28
2023-03-08T09:15:13.650Z,5.60
2023-03-08T09:16:22.949Z,5.10
2023-03-08T09:17:24.638Z,4.85
2023-03-08T09:18:29.056Z,5.00
2023-03-08T09:19:32.297Z,4.00
2023-03-08T09:20:34.803Z,3.88
2023-03-08T09:21:36.896Z,3.50
2023-03-08T09:22:39.256Z,3.72
2023-03-08T09:23:43.290Z,3.72
2023-03-08T09:24:50.480Z,3.20
2023-03-08T09:25:58.010Z,2.83
2023-03-08T09:26:59.935Z,3.20
2023-03-08T09:28:01.996Z,3.42
2023-03-08T09:29:05.751Z,3.10
2023-03-08T09:30:19.367Z,4.30
2023-03-08T09:31:22.030Z,2.75
2023-03-08T09:32:24.433Z,2.67
2023-03-08T09:33:26.731Z,2.83
2023-03-08T09:34:28.935Z,2.40
2023-03-08T09:35:31.978Z,2.90
2023-03-08T09:36:34.446Z,2.20
2023-03-08T09:37:36.670Z,3.20
2023-03-08T09:38:39.068Z,2.63
2023-03-08T09:39:42.813Z,4.20
2023-03-08T09:40:54.376Z,2.60
2023-03-08T09:42:01.990Z,3.13
2023-03-08T09:43:07.057Z,2.97
2023-03-08T09:44:32.094Z,4.32
2023-03-08T09:45:34.312Z,2.72
2023-03-08T09:46:49.227Z,3.10
2023-03-08T09:47:55.671Z,5.25
2023-03-08T09:49:01.143Z,1.80
2023-03-08T09:50:51.788Z,1.95
2023-03-08T09:52:08.790Z,1.98
2023-03-08T09:53:18.393Z,2.30
2023-03-08T09:54:25.398Z,4.15
2023-03-08T09:55:33.389Z,2.05
2023-03-08T09:56:45.233Z,1.60
2023-03-08T09:57:54.330Z,1.92
2023-03-08T09:59:06.004Z,1.30
2023-03-08T10:00:17.461Z,2.35
2023-03-08T10:01:39.084Z,1.65
2023-03-08T10:02:53.514Z,1.70
2023-03-08T10:04:22.748Z,1.50
2023-03-08T10:05:38.836Z,3.97
2023-03-08T10:07:01.443Z,1.95
2023-03-08T10:08:06.294Z,1.48
2023-03-08T10:09:42.741Z,1.55
2023-03-08T10:11:03.000Z,1.50
2023-03-08T10:12:19.756Z,1.75
2023-03-08T10:13:40.520Z,1.60
2023-03-08T10:14:50.861Z,1.75
2023-03-08T10:16:02.142Z,3.35
2023-03-08T10:17:13.331Z,1.20
2023-03-08T10:19:04.486Z,1.60
2023-03-08T10:20:20.280Z,2.17
2023-03-08T10:21:28.378Z,1.25
2023-03-08T10:22:32.695Z,1.60
2023-03-08T10:23:38.319Z,1.40
2023-03-08T10:24:48.024Z,0.90
2023-03-08T10:25:54.159Z,1.10
2023-03-08T10:27:11.297Z,1.17
2023-03-08T10:28:31.986Z,1.50
2023-03-08T10:29:35.296Z,0.80
2023-03-08T10:31:14.445Z,1.30
2023-03-08T10:32:16.836Z,4.30
2023-03-08T10:33:21.099Z,1.00
2023-03-08T10:34:30.109Z,1.33
2023-03-08T10:35:52.680Z,1.00
2023-03-08T10:37:12.239Z,2.70
2023-03-08T10:38:20.260Z,1.13
2023-03-08T10:39:21.868Z,1.55
2023-03-08T10:40:24.455Z,1.45
2023-03-08T10:41:29.970Z,1.38
2023-03-08T10:42:33.480Z,1.70
2023-03-08T10:43:57.009Z,1.20
2023-03-08T10:45:22.111Z,1.45
2023-03-08T10:46:30.249Z,0.93
2023-03-08T10:47:37.782Z,1.20
2023-03-08T10:48:41.710Z,1.30
2023-03-08T10:49:48.005Z,1.45
2023-03-08T10:50:59.887Z,1.27
2023-03-08T10:52:02.849Z,1.08
2023-03-08T10:53:19.267Z,2.25
2023-03-08T10:54:22.254Z,1.88
2023-03-08T10:55:32.557Z,2.28
2023-03-08T10:56:52.480Z,1.25
2023-03-08T10:57:57.455Z,2.75
2023-03-08T10:58:59.713Z,1.67
2023-03-08T11:00:20.266Z,1.08
2023-03-08T11:01:48.823Z,1.13
2023-03-08T11:02:51.007Z,2.45
2023-03-08T11:04:03.747Z,0.90
2023-03-08T11:05:20.280Z,1.08
2023-03-08T11:06:25.075Z,6.68
2023-03-08T11:07:30.645Z,1.40
2023-03-08T11:08:55.671Z,1.40
2023-03-08T11:10:12.879Z,1.80
2023-03-08T11:11:14.861Z,1.90
2023-03-08T11:12:26.768Z,2.25
2023-03-08T11:13:41.918Z,4.22
2023-03-08T11:14:48.210Z,1.15
2023-03-08T11:16:14.998Z,3.83
2023-03-08T11:17:35.706Z,1.50
2023-03-08T11:18:54.059Z,2.15
2023-03-08T11:20:21.681Z,1.48
2023-03-08T11:21:36.480Z,1.60
2023-03-08T11:22:51.304Z,1.73
2023-03-08T11:24:19.078Z,1.50
2023-03-08T11:25:41.450Z,1.00
2023-03-08T11:26:56.525Z,1.02
2023-03-08T11:28:01.811Z,3.05
2023-03-08T11:29:14.940Z,1.30
2023-03-08T11:30:30.388Z,1.90
2023-03-08T11:31:43.375Z,1.00
2023-03-08T11:33:03.739Z,1.20
2023-03-08T11:34:29.059Z,1.30
2023-03-08T11:36:00.986Z,1.00
2023-03-08T11:37:10.161Z,1.20
2023-03-08T11:38:32.347Z,1.10
2023-03-08T11:39:44.685Z,0.90
2023-03-08T11:40:57.209Z,1.27
2023-03-08T11:42:12.469Z,1.70
2023-03-08T11:43:26.850Z,0.90
2023-03-08T11:44:50.719Z,1.40
2023-03-08T11:45:58.334Z,0.90
2023-03-08T11:47:45.418Z,1.33
2023-03-08T11:49:10.176Z,1.00
2023-03-08T11:50:26.818Z,1.10
2023-03-08T11:52:02.701Z,2.90
2023-03-08T11:53:28.865Z,1.23
2023-03-08T11:54:53.342Z,3.03
2023-03-08T11:56:15.684Z,1.63
2023-03-08T11:57:18.978Z,0.88
2023-03-08T11:58:39.218Z,1.43
2023-03-08T12:00:01.613Z,1.20
2023-03-08T12:01:29.788Z,1.37
2023-03-08T12:02:42.366Z,1.43
2023-03-08T12:03:51.012Z,0.97
2023-03-08T12:04:56.571Z,1.27
2023-03-08T12:06:35.543Z,2.70
2023-03-08T12:07:54.581Z,1.47
2023-03-08T12:09:34.702Z,2.13
2023-03-08T12:11:12.542Z,1.50
2023-03-08T12:12:21.773Z,0.90
2023-03-08T12:13:35.732Z,0.90
2023-03-08T12:15:03.942Z,3.00
2023-03-08T12:16:25.716Z,1.53
2023-03-08T12:17:40.221Z,1.63
2023-03-08T12:19:10.944Z,1.50
2023-03-08T12:20:15.251Z,1.20
2023-03-08T12:21:41.908Z,1.07
2023-03-08T12:22:55.346Z,0.93
2023-03-08T12:24:04.885Z,1.00
2023-03-08T12:25:20.148Z,0.93
2023-03-08T12:26:29.715Z,1.50
2023-03-08T12:27:39.099Z,3.27
2023-03-08T12:28:58.323Z,1.20
2023-03-08T12:30:26.496Z,1.23
2023-03-08T12:31:42.268Z,1.00
2023-03-08T12:32:46.002Z,1.10
2023-03-08T12:33:50.554Z,1.10
2023-03-08T12:35:05.976Z,2.53
2023-03-08T12:36:09.544Z,1.17
2023-03-08T12:37:28.989Z,2.10
2023-03-08T12:38:37.831Z,1.53
2023-03-08T12:39:41.750Z,1.13
2023-03-08T12:40:52.269Z,1.60
2023-03-08T12:42:12.563Z,1.00
2023-03-08T12:43:20.591Z,0.93
2023-03-08T12:44:26.664Z,1.03
2023-03-08T12:45:38.675Z,1.20
2023-03-08T12:47:02.225Z,5.17
2023-03-08T12:48:05.162Z,1.17
2023-03-08T12:49:19.989Z,0.97
2023-03-08T12:50:24.466Z,1.40
2023-03-08T12:51:33.927Z,2.03
2023-03-08T12:52:37.838Z,6.20
2023-03-08T12:53:49.771Z,1.07
2023-03-08T12:55:01.152Z,3.70
2023-03-08T12:56:07.459Z,1.70
2023-03-08T12:57:22.415Z,0.93
2023-03-08T12:58:25.720Z,0.90
2023-03-08T12:59:39.787Z,3.37
2023-03-08T13:01:04.826Z,0.83
2023-03-08T13:02:25.929Z,1.70
2023-03-08T13:03:39.958Z,0.80
2023-03-08T13:04:42.907Z,0.80
2023-03-08T13:05:50.343Z,0.87
2023-03-08T13:06:52.419Z,1.50
2023-03-08T13:08:15.195Z,1.73
2023-03-08T13:09:43.044Z,1.40
2023-03-08T13:10:50.959Z,1.50
2023-03-08T13:12:12.740Z,1.40
2023-03-08T13:13:48.088Z,1.40
2023-03-08T13:15:02.615Z,1.00
2023-03-08T13:16:21.592Z,9.20
2023-03-08T13:17:36.579Z,1.63
2023-03-08T13:18:39.305Z,0.70
2023-03-08T13:19:43.395Z,4.67
2023-03-08T13:21:14.222Z,1.17
2023-03-08T13:22:27.252Z,2.97
2023-03-08T13:23:52.790Z,1.03
2023-03-08T13:25:00.378Z,0.70
2023-03-08T13:26:54.847Z,1.13
2023-03-08T13:28:07.669Z,3.77
2023-03-08T13:29:20.655Z,2.63
2023-03-08T13:30:50.301Z,1.37
2023-03-08T13:31:52.651Z,0.93
2023-03-08T13:32:54.679Z,0.60
2023-03-08T13:34:01.755Z,1.33
2023-03-08T13:35:05.665Z,0.60
2023-03-08T13:36:27.078Z,2.50
2023-03-08T13:37:32.940Z,1.10
2023-03-08T13:38:39.086Z,0.60
2023-03-08T13:39:51.482Z,0.83
2023-03-08T13:40:58.803Z,2.50
2023-03-08T13:42:11.877Z,0.80
2023-03-08T13:43:17.967Z,0.93
2023-03-08T13:44:28.866Z,1.43
2023-03-08T13:45:32.533Z,0.77
2023-03-08T13:46:37.616Z,0.50
2023-03-08T13:47:40.246Z,0.80
2023-03-08T13:48:44.419Z,2.33
2023-03-08T13:49:47.188Z,0.60
2023-03-08T13:50:51.547Z,0.70
2023-03-08T13:51:56.539Z,1.33
2023-03-08T13:53:00.737Z,0.73
2023-03-08T13:54:02.706Z,0.70
2023-03-08T13:55:08.900Z,5.10
2023-03-08T13:56:23.646Z,0.50
2023-03-08T13:57:31.135Z,0.70
2023-03-08T13:58:34.583Z,0.60
2023-03-08T13:59:39.035Z,0.80
2023-03-08T14:00:41.588Z,1.33
2023-03-08T14:01:52.196Z,0.50
2023-03-08T14:02:55.173Z,1.03
2023-03-08T14:03:59.882Z,1.33
2023-03-08T14:05:03.183Z,0.97
2023-03-08T14:06:24.615Z,2.40
2023-03-08T14:07:33.212Z,1.13
2023-03-08T14:08:36.972Z,0.50
2023-03-08T14:09:39.820Z,1.47
2023-03-08T14:10:51.734Z,2.70
2023-03-08T14:12:05.556Z,0.70
2023-03-08T14:13:18.660Z,1.60
2023-03-08T14:14:47.470Z,0.83
2023-03-08T14:15:55.726Z,0.80
2023-03-08T14:16:58.691Z,2.70
2023-03-08T14:18:01.154Z,1.30
2023-03-08T14:19:24.309Z,1.02
2023-03-08T14:20:26.415Z,1.00
2023-03-08T14:21:30.412Z,1.05
2023-03-08T14:22:39.995Z,2.60
2023-03-08T14:23:55.468Z,3.50
2023-03-08T14:25:02.646Z,4.10
2023-03-08T14:26:04.587Z,0.60
2023-03-08T14:27:21.803Z,3.27
2023-03-08T14:28:41.979Z,1.10
2023-03-08T14:29:46.178Z,2.28
2023-03-08T14:30:49.482Z,2.05
2023-03-08T14:32:13.160Z,1.17
2023-03-08T14:33:30.673Z,1.10
2023-03-08T14:34:44.904Z,1.63
2023-03-08T14:35:56.086Z,0.60
2023-03-08T14:37:03.825Z,0.60
2023-03-08T14:38:21.112Z,1.13
2023-03-08T14:39:29.446Z,1.15
2023-03-08T14:40:33.891Z,0.82
2023-03-08T14:41:38.439Z,4.10
2023-03-08T14:42:49.455Z,1.15
2023-03-08T14:43:53.231Z,1.00
2023-03-08T14:45:02.057Z,1.17
2023-03-08T14:46:06.780Z,0.90
2023-03-08T14:47:30.345Z,0.80